Time;durP1;ratioP1;P1;durP2;ratioP2;P2;SDS_P1;SDS_P2;PMS_P1;PMS_P2;Temp;Humidity;BMP_temperature;BMP_pressure;BME280_temperature;BME280_humidity;BME280_pressure;Samples;Min_cycle;Max_cycle;Signal;HPM_P1;HPM_P2
2022/04/20 00:00:12;;;;;;;;;;;;;;;;;;1038985;28;3539;-43
2022/04/20 00:01:03;;;;;;;;;;;;;;;;;;1038639;28;3529;-43
2022/04/20 00:01:33;;;;;;;;;;;;;;;;;;1036485;28;3379;-45
2022/04/20 00:02:03;;;;;;;;;;;;;;;;;;1037710;28;3691;-44
2022/04/20 00:02:34;;;;;;;;;;;;;;;;;;1038697;28;3894;-43
2022/04/20 00:03:05;;;;;;;;;;;;;;;;;;1039383;28;3378;-48
2022/04/20 00:03:35;;;;;;;;;;;;;;;;;;1039388;28;3526;-44
2022/04/20 00:04:05;;;;;;;;;;;;;;;;;;1038583;28;3866;-44
2022/04/20 00:04:36;;;;;;;;;;;;;;;;;;1036865;28;3722;-45
2022/04/20 00:05:06;;;;;;;;;;;;;;;;;;1038489;28;3360;-44
2022/04/20 00:05:36;;;;;;;;;;;;;;;;;;1037367;28;3646;-42
2022/04/20 00:06:07;;;;;;;;;;;;;;;;;;1038914;28;3751;-46
2022/04/20 00:06:37;;;;;;;;;;;;;;;;;;1034161;28;3477;-42
2022/04/20 00:07:09;;;;;;;;;;;;;;;;;;1039212;28;3225;-44
2022/04/20 00:07:39;;;;;;;;;;;;;;;;;;1037772;28;3844;-50
2022/04/20 00:08:09;;;;;;;;;;;;;;;;;;1037413;28;3699;-45
2022/04/20 00:08:40;;;;;;;;;;;;;;;;;;1035994;28;3271;-45
2022/04/20 00:09:11;;;;;;;;;;;;;;;;;;1039280;28;3540;-47
2022/04/20 00:09:41;;;;;;;;;;;;;;;;;;1036902;28;3781;-42
2022/04/20 00:10:11;;;;;;;;;;;;;;;;;;1037696;28;3973;-48
2022/04/20 00:10:41;;;;;;;;;;;;;;;;;;1037015;28;3265;-44
2022/04/20 00:11:12;;;;;;;;;;;;;;;;;;1037355;28;3231;-44
2022/04/20 00:11:42;;;;;;;;;;;;;;;;;;1038334;28;3684;-48
2022/04/20 00:12:12;;;;;;;;;;;;;;;;;;1038492;28;3721;-46
2022/04/20 00:12:42;;;;;;;;;;;;;;;;;;1041064;28;3307;-44
2022/04/20 00:13:13;;;;;;;;;;;;;;;;;;1043213;28;3402;-44
2022/04/20 00:13:43;;;;;;;;;;;;;;;;;;1038175;28;3499;-44
2022/04/20 00:14:13;;;;;;;;;;;;;;;;;;1038008;28;4081;-44
2022/04/20 00:14:43;;;;;;;;;;;;;;;;;;1037657;28;3075;-43
2022/04/20 00:15:14;;;;;;;;;;;;;;;;;;1038411;28;3309;-45
2022/04/20 00:15:44;;;;;;;;;;;;;;;;;;1038574;28;2988;-45
2022/04/20 00:16:14;;;;;;;;;;;;;;;;;;1037700;28;3406;-46
2022/04/20 00:16:44;;;;;;;;;;;;;;;;;;1037818;28;3122;-47
2022/04/20 00:17:15;;;;;;;;;;;;;;;;;;1038609;28;3336;-45
2022/04/20 00:17:45;;;;;;;;;;;;;;;;;;1041637;28;1695;-45
2022/04/20 00:18:15;;;;;;;;;;;;;;;;;;1041123;28;3367;-42
2022/04/20 00:18:45;;;;;;;;;;;;;;;;;;1038184;28;3181;-51
2022/04/20 00:19:16;;;;;;;;;;;;;;;;;;1041448;28;3214;-43
2022/04/20 00:19:46;;;;;;;;;;;;;;;;;;1037506;28;3776;-45
2022/04/20 00:20:16;;;;;;;;;;;;;;;;;;1038110;28;3439;-45
2022/04/20 00:20:46;;;;;;;;;;;;;;;;;;1037794;28;2729;-46
2022/04/20 00:21:17;;;;;;;;;;;;;;;;;;1038833;28;3401;-43
2022/04/20 00:21:47;;;;;;;;;;;;;;;;;;1039183;28;3514;-45
2022/04/20 00:22:17;;;;;;;;;;;;;;;;;;1038275;28;3367;-45
2022/04/20 00:22:54;;;;;;;;;;;;;;;;;;1039356;28;1831;-48
2022/04/20 00:23:24;;;;;;;;;;;;;;;;;;1038884;28;2909;-44
2022/04/20 00:23:54;;;;;;;;;;;;;;;;;;1037830;28;3466;-44
2022/04/20 00:24:24;;;;;;;;;;;;;;;;;;1036679;28;3932;-42
2022/04/20 00:24:55;;;;;;;;;;;;;;;;;;1040104;28;2982;-45
2022/04/20 00:25:25;;;;;;;;;;;;;;;;;;1039355;28;3480;-41
2022/04/20 00:25:55;;;;;;;;;;;;;;;;;;1040401;28;3222;-51
2022/04/20 00:26:26;;;;;;;;;;;;;;;;;;1036955;28;3619;-43
2022/04/20 00:26:56;;;;;;;;;;;;;;;;;;1038627;28;3152;-42
2022/04/20 00:27:26;;;;;;;;;;;;;;;;;;1038615;28;3509;-43
2022/04/20 00:27:56;;;;;;;;;;;;;;;;;;1038359;28;3279;-43
2022/04/20 00:28:27;;;;;;;;;;;;;;;;;;1039278;28;3174;-42
2022/04/20 00:28:57;;;;;;;;;;;;;;;;;;1039106;28;3422;-44
2022/04/20 00:29:27;;;;;;;;;;;;;;;;;;1038364;28;3528;-44
2022/04/20 00:29:58;;;;;;;;;;;;;;;;;;1039401;28;3501;-45
2022/04/20 00:30:28;;;;;;;;;;;;;;;;;;1039329;28;1698;-41
2022/04/20 00:30:58;;;;;;;;;;;;;;;;;;1039041;28;3265;-45
2022/04/20 00:31:28;;;;;;;;;;;;;;;;;;1039367;28;1900;-44
2022/04/20 00:31:59;;;;;;;;;;;;;;;;;;1038343;28;3371;-45
2022/04/20 00:32:30;;;;;;;;;;;;;;;;;;1038559;28;3590;-46
2022/04/20 00:33:00;;;;;;;;;;;;;;;;;;1039032;28;3289;-45
2022/04/20 00:33:31;;;;;;;;;;;;;;;;;;1039097;28;2082;-43
2022/04/20 00:34:01;;;;;;;;;;;;;;;;;;1038812;28;3424;-45
2022/04/20 00:34:31;;;;;;;;;;;;;;;;;;1039193;28;3390;-44
2022/04/20 00:35:01;;;;;;;;;;;;;;;;;;1037553;28;3589;-45
2022/04/20 00:35:32;;;;;;;;;;;;;;;;;;1037653;28;3396;-47
2022/04/20 00:36:02;;;;;;;;;;;;;;;;;;1038311;28;3563;-46
2022/04/20 00:36:32;;;;;;;;;;;;;;;;;;1038295;28;3809;-43
2022/04/20 00:37:03;;;;;;;;;;;;;;;;;;1037814;28;3478;-46
2022/04/20 00:37:34;;;;;;;;;;;;;;;;;;1039022;28;3750;-45
2022/04/20 00:38:17;;;;;;;;;;;;;;;;;;1041123;28;3358;-40
2022/04/20 00:38:55;;;;;;;;;;;;;;;;;;1042388;28;3397;-47
2022/04/20 00:39:25;;;;;;;;;;;;;;;;;;1042872;28;2133;-44
2022/04/20 00:39:55;;;;;;;;;;;;;;;;;;1043115;28;3279;-45
2022/04/20 00:40:26;;;;;;;;;;;;;;;;;;1041687;28;3469;-43
2022/04/20 00:40:56;;;;;;;;;;;;;;;;;;1040119;28;3429;-42
2022/04/20 00:41:27;;;;;;;;;;;;;;;;;;1042359;28;3065;-44
2022/04/20 00:41:57;;;;;;;;;;;;;;;;;;1041621;28;3758;-43
2022/04/20 00:42:28;;;;;;;;;;;;;;;;;;1041838;28;3297;-47
2022/04/20 00:42:58;;;;;;;;;;;;;;;;;;1041220;28;3582;-44
2022/04/20 00:43:29;;;;;;;;;;;;;;;;;;1042406;28;3619;-45
2022/04/20 00:44:00;;;;;;;;;;;;;;;;;;1042230;28;3454;-47
2022/04/20 00:44:30;;;;;;;;;;;;;;;;;;1042529;28;4075;-46
2022/04/20 00:45:00;;;;;;;;;;;;;;;;;;1038258;28;2399;-44
2022/04/20 00:45:31;;;;;;;;;;;;;;;;;;1037119;28;3405;-42
2022/04/20 00:46:03;;;;;;;;;;;;;;;;;;1038939;28;3570;-46
2022/04/20 00:46:33;;;;;;;;;;;;;;;;;;1038258;28;3594;-43
2022/04/20 00:47:04;;;;;;;;;;;;;;;;;;1043684;28;2507;-44
2022/04/20 00:47:38;;;;;;;;;;;;;;;;;;1040990;28;3395;-47
2022/04/20 00:48:11;;;;;;;;;;;;;;;;;;1043701;28;3448;-44
2022/04/20 00:48:42;;;;;;;;;;;;;;;;;;1039187;28;3401;-44
2022/04/20 00:49:13;;;;;;;;;;;;;;;;;;1043140;28;3323;-47
2022/04/20 00:49:45;;;;;;;;;;;;;;;;;;1043233;28;3291;-46
2022/04/20 00:50:15;;;;;;;;;;;;;;;;;;1042944;28;3003;-48
2022/04/20 00:50:46;;;;;;;;;;;;;;;;;;1041091;28;5137;-43
2022/04/20 00:51:16;;;;;;;;;;;;;;;;;;1043108;28;3638;-49
2022/04/20 00:51:50;;;;;;;;;;;;;;;;;;1041069;28;3222;-43
2022/04/20 00:52:20;;;;;;;;;;;;;;;;;;1038569;28;3760;-43
2022/04/20 00:52:51;;;;;;;;;;;;;;;;;;1041754;28;3075;-44
2022/04/20 00:53:21;;;;;;;;;;;;;;;;;;1040274;28;6063;-46
2022/04/20 00:53:51;;;;;;;;;;;;;;;;;;1043408;28;3154;-46
2022/04/20 00:54:21;;;;;;;;;;;;;;;;;;1043682;28;3919;-46
2022/04/20 00:54:52;;;;;;;;;;;;;;;;;;1042593;28;3766;-40
2022/04/20 00:55:22;;;;;;;;;;;;;;;;;;1041866;28;3311;-45
2022/04/20 00:55:52;;;;;;;;;;;;;;;;;;1042523;28;3978;-44
2022/04/20 00:56:22;;;;;;;;;;;;;;;;;;1042501;28;3291;-44
2022/04/20 00:56:53;;;;;;;;;;;;;;;;;;1042776;28;1780;-49
2022/04/20 00:57:23;;;;;;;;;;;;;;;;;;1042611;28;3345;-46
2022/04/20 00:57:53;;;;;;;;;;;;;;;;;;1041886;28;4202;-42
2022/04/20 00:58:23;;;;;;;;;;;;;;;;;;1043838;28;3570;-45
2022/04/20 00:58:55;;;;;;;;;;;;;;;;;;1042852;28;1910;-47
2022/04/20 00:59:26;;;;;;;;;;;;;;;;;;1043137;28;3845;-42
2022/04/20 00:59:59;;;;;;;;;;;;;;;;;;1042135;28;4164;-44
2022/04/20 01:00:29;;;;;;;;;;;;;;;;;;1043471;28;1908;-50
2022/04/20 01:01:00;;;;;;;;;;;;;;;;;;1042332;28;3255;-45
2022/04/20 01:01:30;;;;;;;;;;;;;;;;;;1041896;28;3492;-45
2022/04/20 01:02:01;;;;;;;;;;;;;;;;;;1038759;28;1682;-45
2022/04/20 01:02:31;;;;;;;;;;;;;;;;;;1038087;28;3105;-46
2022/04/20 01:03:02;;;;;;;;;;;;;;;;;;1038921;28;3304;-47
2022/04/20 01:03:32;;;;;;;;;;;;;;;;;;1038459;28;3644;-42
2022/04/20 01:04:03;;;;;;;;;;;;;;;;;;1043029;28;3348;-45
2022/04/20 01:04:33;;;;;;;;;;;;;;;;;;1033810;28;3522;-44
2022/04/20 01:05:03;;;;;;;;;;;;;;;;;;1035863;28;2548;-47
2022/04/20 01:05:33;;;;;;;;;;;;;;;;;;1034346;28;3407;-49
2022/04/20 01:06:05;;;;;;;;;;;;;;;;;;1033438;28;3261;-44
2022/04/20 01:06:35;;;;;;;;;;;;;;;;;;1040704;28;3645;-41
2022/04/20 01:07:12;;;;;;;;;;;;;;;;;;1038602;28;3557;-51
2022/04/20 01:07:42;;;;;;;;;;;;;;;;;;1039361;28;3468;-44
2022/04/20 01:08:13;;;;;;;;;;;;;;;;;;1037134;28;3454;-47
2022/04/20 01:08:43;;;;;;;;;;;;;;;;;;1038631;28;4034;-43
2022/04/20 01:09:13;;;;;;;;;;;;;;;;;;1042818;28;3323;-43
2022/04/20 01:09:44;;;;;;;;;;;;;;;;;;1042842;28;2918;-42
2022/04/20 01:10:15;;;;;;;;;;;;;;;;;;1040384;28;4523;-46
2022/04/20 01:10:45;;;;;;;;;;;;;;;;;;1043669;28;3529;-46
2022/04/20 01:11:15;;;;;;;;;;;;;;;;;;1042808;28;3280;-46
2022/04/20 01:11:45;;;;;;;;;;;;;;;;;;1040809;28;3495;-40
2022/04/20 01:12:17;;;;;;;;;;;;;;;;;;1042400;28;3571;-44
2022/04/20 01:12:47;;;;;;;;;;;;;;;;;;1043219;28;1710;-49
2022/04/20 01:13:18;;;;;;;;;;;;;;;;;;1043066;28;3358;-43
2022/04/20 01:13:48;;;;;;;;;;;;;;;;;;1037141;28;3243;-43
2022/04/20 01:14:18;;;;;;;;;;;;;;;;;;1039103;28;3420;-46
2022/04/20 01:14:49;;;;;;;;;;;;;;;;;;1036650;28;3443;-44
2022/04/20 01:15:19;;;;;;;;;;;;;;;;;;1037992;28;3270;-43
2022/04/20 01:15:49;;;;;;;;;;;;;;;;;;1043380;28;3054;-43
2022/04/20 01:16:19;;;;;;;;;;;;;;;;;;1041818;28;3570;-47
2022/04/20 01:16:50;;;;;;;;;;;;;;;;;;1043898;28;2849;-43
2022/04/20 01:17:20;;;;;;;;;;;;;;;;;;1043406;28;3564;-46
2022/04/20 01:17:50;;;;;;;;;;;;;;;;;;1041955;28;4252;-47
2022/04/20 01:18:20;;;;;;;;;;;;;;;;;;1038074;28;3310;-45
2022/04/20 01:18:51;;;;;;;;;;;;;;;;;;1035799;28;3327;-44
2022/04/20 01:19:21;;;;;;;;;;;;;;;;;;1038135;28;3666;-46
2022/04/20 01:19:52;;;;;;;;;;;;;;;;;;1036358;28;3383;-43
2022/04/20 01:20:22;;;;;;;;;;;;;;;;;;1042627;28;3291;-41
2022/04/20 01:21:00;;;;;;;;;;;;;;;;;;1037135;28;3769;-45
2022/04/20 01:21:31;;;;;;;;;;;;;;;;;;1037554;28;3448;-47
2022/04/20 01:22:02;;;;;;;;;;;;;;;;;;1037138;28;3530;-42
2022/04/20 01:22:32;;;;;;;;;;;;;;;;;;1037856;28;3703;-45
2022/04/20 01:23:02;;;;;;;;;;;;;;;;;;1034732;28;3387;-44
2022/04/20 01:23:32;;;;;;;;;;;;;;;;;;1034380;28;2314;-47
2022/04/20 01:24:03;;;;;;;;;;;;;;;;;;1034554;28;3503;-48
2022/04/20 01:24:34;;;;;;;;;;;;;;;;;;1038356;28;3626;-45
2022/04/20 01:25:04;;;;;;;;;;;;;;;;;;1043235;28;2659;-42
2022/04/20 01:25:34;;;;;;;;;;;;;;;;;;1042620;28;2025;-44
2022/04/20 01:26:08;;;;;;;;;;;;;;;;;;1043072;28;4184;-49
2022/04/20 01:26:39;;;;;;;;;;;;;;;;;;1043533;28;2887;-45
2022/04/20 01:27:10;;;;;;;;;;;;;;;;;;1043479;28;3195;-52
2022/04/20 01:27:41;;;;;;;;;;;;;;;;;;1042770;28;3272;-44
2022/04/20 01:28:11;;;;;;;;;;;;;;;;;;1041596;28;3276;-42
2022/04/20 01:28:43;;;;;;;;;;;;;;;;;;1043919;28;3468;-41
2022/04/20 01:29:14;;;;;;;;;;;;;;;;;;1042692;28;3129;-43
2022/04/20 01:29:46;;;;;;;;;;;;;;;;;;1043945;28;3383;-43
2022/04/20 01:30:16;;;;;;;;;;;;;;;;;;1041248;28;3525;-47
2022/04/20 01:30:46;;;;;;;;;;;;;;;;;;1043183;28;3490;-42
2022/04/20 01:31:17;;;;;;;;;;;;;;;;;;1041401;28;3718;-45
2022/04/20 01:31:47;;;;;;;;;;;;;;;;;;1044272;28;3574;-46
2022/04/20 01:32:17;;;;;;;;;;;;;;;;;;1042425;28;2565;-41
2022/04/20 01:32:48;;;;;;;;;;;;;;;;;;1043565;28;3022;-47
2022/04/20 01:33:18;;;;;;;;;;;;;;;;;;1043288;28;3395;-44
2022/04/20 01:33:48;;;;;;;;;;;;;;;;;;1042377;28;3532;-47
2022/04/20 01:34:19;;;;;;;;;;;;;;;;;;1042591;28;3440;-42
2022/04/20 01:34:49;;;;;;;;;;;;;;;;;;1043024;28;3527;-44
2022/04/20 01:35:19;;;;;;;;;;;;;;;;;;1043332;28;3066;-43
2022/04/20 01:35:49;;;;;;;;;;;;;;;;;;1043198;28;1730;-43
2022/04/20 01:36:20;;;;;;;;;;;;;;;;;;1042513;28;3515;-45
2022/04/20 01:36:50;;;;;;;;;;;;;;;;;;1042763;28;1838;-43
2022/04/20 01:37:21;;;;;;;;;;;;;;;;;;1043195;28;3065;-47
2022/04/20 01:38:04;;;;;;;;;;;;;;;;;;1041737;28;2151;-41
2022/04/20 01:38:42;;;;;;;;;;;;;;;;;;1042082;28;3465;-44
2022/04/20 01:39:12;;;;;;;;;;;;;;;;;;1042319;28;3584;-41
2022/04/20 01:39:42;;;;;;;;;;;;;;;;;;1043410;28;1835;-43
2022/04/20 01:40:13;;;;;;;;;;;;;;;;;;1037717;28;3456;-47
2022/04/20 01:40:43;;;;;;;;;;;;;;;;;;1038424;28;3507;-45
2022/04/20 01:41:14;;;;;;;;;;;;;;;;;;1037761;28;3389;-44
2022/04/20 01:41:44;;;;;;;;;;;;;;;;;;1038150;28;1836;-44
2022/04/20 01:42:15;;;;;;;;;;;;;;;;;;1042608;28;2685;-44
2022/04/20 01:42:45;;;;;;;;;;;;;;;;;;1043014;28;2874;-46
2022/04/20 01:43:15;;;;;;;;;;;;;;;;;;1042249;28;3646;-45
2022/04/20 01:43:45;;;;;;;;;;;;;;;;;;1043080;28;2152;-43
2022/04/20 01:44:15;;;;;;;;;;;;;;;;;;1042513;28;1810;-49
2022/04/20 01:44:46;;;;;;;;;;;;;;;;;;1044563;28;1846;-47
2022/04/20 01:45:16;;;;;;;;;;;;;;;;;;1044378;28;1782;-46
2022/04/20 01:45:46;;;;;;;;;;;;;;;;;;1042410;28;3525;-48
2022/04/20 01:46:17;;;;;;;;;;;;;;;;;;1037877;28;2916;-46
2022/04/20 01:46:47;;;;;;;;;;;;;;;;;;1037257;28;2073;-44
2022/04/20 01:47:17;;;;;;;;;;;;;;;;;;1039332;28;3583;-41
2022/04/20 01:47:47;;;;;;;;;;;;;;;;;;1039288;28;3285;-50
2022/04/20 01:48:18;;;;;;;;;;;;;;;;;;1043684;28;1682;-51
2022/04/20 01:48:48;;;;;;;;;;;;;;;;;;1042829;28;2492;-44
2022/04/20 01:49:18;;;;;;;;;;;;;;;;;;1043026;28;3724;-43
2022/04/20 01:49:48;;;;;;;;;;;;;;;;;;1042748;28;3234;-44
2022/04/20 01:50:19;;;;;;;;;;;;;;;;;;1043312;28;3986;-49
2022/04/20 01:51:47;;;;;;;;;;;;;;;;;;1042533;28;2714;-45
2022/04/20 01:52:17;;;;;;;;;;;;;;;;;;1043294;28;3074;-48
2022/04/20 01:52:48;;;;;;;;;;;;;;;;;;1043829;28;3640;-47
2022/04/20 01:53:18;;;;;;;;;;;;;;;;;;1047366;28;1820;-45
2022/04/20 01:53:48;;;;;;;;;;;;;;;;;;1046254;28;3094;-48
2022/04/20 01:54:37;;;;;;;;;;;;;;;;;;1046704;28;1690;-46
2022/04/20 01:55:07;;;;;;;;;;;;;;;;;;1044234;28;2566;-45
2022/04/20 01:55:37;;;;;;;;;;;;;;;;;;1043496;28;1841;-52
2022/04/20 01:56:08;;;;;;;;;;;;;;;;;;1042486;28;4344;-43
2022/04/20 01:56:38;;;;;;;;;;;;;;;;;;1042732;28;1667;-42
2022/04/20 01:57:08;;;;;;;;;;;;;;;;;;1043773;28;1788;-44
2022/04/20 01:57:39;;;;;;;;;;;;;;;;;;1043272;28;1689;-47
2022/04/20 01:58:09;;;;;;;;;;;;;;;;;;1041996;28;3601;-49
2022/04/20 01:58:39;;;;;;;;;;;;;;;;;;1043127;28;3570;-44
2022/04/20 01:59:10;;;;;;;;;;;;;;;;;;1043131;28;1740;-45
2022/04/20 01:59:40;;;;;;;;;;;;;;;;;;1042232;28;3025;-45
2022/04/20 02:00:10;;;;;;;;;;;;;;;;;;1042924;28;3773;-47
2022/04/20 02:00:41;;;;;;;;;;;;;;;;;;1042435;28;2554;-42
2022/04/20 02:02:49;;;;;;;;;;;;;;;;;;1041432;28;3549;-43
2022/04/20 02:03:19;;;;;;;;;;;;;;;;;;1042515;28;3295;-43
2022/04/20 02:03:50;;;;;;;;;;;;;;;;;;1041169;28;3498;-44
2022/04/20 02:04:20;;;;;;;;;;;;;;;;;;1042933;28;3458;-41
2022/04/20 02:04:50;;;;;;;;;;;;;;;;;;1043066;28;2922;-45
2022/04/20 02:05:21;;;;;;;;;;;;;;;;;;1042281;28;3451;-43
2022/04/20 02:05:51;;;;;;;;;;;;;;;;;;1042311;28;3431;-42
2022/04/20 02:06:21;;;;;;;;;;;;;;;;;;1041536;28;3170;-46
2022/04/20 02:06:51;;;;;;;;;;;;;;;;;;1042019;28;3904;-44
2022/04/20 02:07:22;;;;;;;;;;;;;;;;;;1041168;28;2957;-48
2022/04/20 02:07:52;;;;;;;;;;;;;;;;;;1040281;28;3342;-44
2022/04/20 02:08:22;;;;;;;;;;;;;;;;;;1038073;28;3048;-45
2022/04/20 02:08:52;;;;;;;;;;;;;;;;;;1041121;28;2423;-45
2022/04/20 02:09:24;;;;;;;;;;;;;;;;;;1040170;28;3487;-48
2022/04/20 02:09:54;;;;;;;;;;;;;;;;;;1040036;28;3068;-46
2022/04/20 02:10:24;;;;;;;;;;;;;;;;;;1039871;28;3406;-43
2022/04/20 02:10:55;;;;;;;;;;;;;;;;;;1037153;28;3539;-48
2022/04/20 02:11:25;;;;;;;;;;;;;;;;;;1037472;28;2984;-45
2022/04/20 02:11:55;;;;;;;;;;;;;;;;;;1038622;28;1684;-47
2022/04/20 02:12:26;;;;;;;;;;;;;;;;;;1037131;28;3577;-50
2022/04/20 02:12:56;;;;;;;;;;;;;;;;;;1042272;28;3351;-46
2022/04/20 02:13:26;;;;;;;;;;;;;;;;;;1041500;28;3652;-43
2022/04/20 02:13:58;;;;;;;;;;;;;;;;;;1041686;28;3515;-43
2022/04/20 02:14:28;;;;;;;;;;;;;;;;;;1043458;28;1681;-44
2022/04/20 02:14:58;;;;;;;;;;;;;;;;;;1042864;28;3512;-42
2022/04/20 02:15:28;;;;;;;;;;;;;;;;;;1043267;28;3367;-46
2022/04/20 02:15:59;;;;;;;;;;;;;;;;;;1041984;28;3474;-47
2022/04/20 02:16:29;;;;;;;;;;;;;;;;;;1039644;28;3253;-42
2022/04/20 02:16:59;;;;;;;;;;;;;;;;;;1037521;28;3256;-40
2022/04/20 02:17:34;;;;;;;;;;;;;;;;;;1038981;28;1579;-45
2022/04/20 02:18:04;;;;;;;;;;;;;;;;;;1038909;28;3455;-42
2022/04/20 02:18:34;;;;;;;;;;;;;;;;;;1041840;28;3531;-42
2022/04/20 02:19:04;;;;;;;;;;;;;;;;;;1042091;28;3897;-43
2022/04/20 02:19:35;;;;;;;;;;;;;;;;;;1043639;28;3493;-48
2022/04/20 02:20:05;;;;;;;;;;;;;;;;;;1041894;28;2597;-43
2022/04/20 02:20:36;;;;;;;;;;;;;;;;;;1043466;28;1242;-43
2022/04/20 02:21:13;;;;;;;;;;;;;;;;;;1042526;28;3537;-44
2022/04/20 02:21:43;;;;;;;;;;;;;;;;;;1042916;28;3095;-45
2022/04/20 02:22:14;;;;;;;;;;;;;;;;;;1042435;28;2994;-44
2022/04/20 02:22:44;;;;;;;;;;;;;;;;;;1042541;28;1679;-42
2022/04/20 02:23:14;;;;;;;;;;;;;;;;;;1042447;28;2778;-46
2022/04/20 02:23:44;;;;;;;;;;;;;;;;;;1043554;28;1869;-43
2022/04/20 02:24:15;;;;;;;;;;;;;;;;;;1042986;28;2660;-44
2022/04/20 02:24:45;;;;;;;;;;;;;;;;;;1042782;28;3015;-49
2022/04/20 02:25:15;;;;;;;;;;;;;;;;;;1041762;28;3692;-48
2022/04/20 02:25:46;;;;;;;;;;;;;;;;;;1033849;28;3291;-42
2022/04/20 02:26:16;;;;;;;;;;;;;;;;;;1036420;28;3567;-44
2022/04/20 02:26:46;;;;;;;;;;;;;;;;;;1036298;28;3449;-45
2022/04/20 02:27:16;;;;;;;;;;;;;;;;;;1036253;28;2843;-42
2022/04/20 02:27:47;;;;;;;;;;;;;;;;;;1043228;28;3310;-43
2022/04/20 02:28:18;;;;;;;;;;;;;;;;;;1041761;28;3362;-44
2022/04/20 02:28:48;;;;;;;;;;;;;;;;;;1042188;28;3334;-44
2022/04/20 02:29:18;;;;;;;;;;;;;;;;;;1042498;28;3795;-43
2022/04/20 02:29:49;;;;;;;;;;;;;;;;;;1042032;28;3016;-43
2022/04/20 02:30:19;;;;;;;;;;;;;;;;;;1043439;28;1698;-44
2022/04/20 02:30:49;;;;;;;;;;;;;;;;;;1042686;28;3310;-47
2022/04/20 02:31:19;;;;;;;;;;;;;;;;;;1041528;28;3508;-44
2022/04/20 02:31:49;;;;;;;;;;;;;;;;;;1036339;28;3399;-49
2022/04/20 02:32:22;;;;;;;;;;;;;;;;;;1037582;28;3533;-44
2022/04/20 02:32:52;;;;;;;;;;;;;;;;;;1036526;28;3434;-44
2022/04/20 02:33:22;;;;;;;;;;;;;;;;;;1038063;28;3075;-42
2022/04/20 02:33:53;;;;;;;;;;;;;;;;;;1043209;28;3428;-43
2022/04/20 02:34:23;;;;;;;;;;;;;;;;;;1043130;28;2127;-47
2022/04/20 02:34:53;;;;;;;;;;;;;;;;;;1043427;28;3323;-46
2022/04/20 02:35:30;;;;;;;;;;;;;;;;;;1042741;28;3533;-44
2022/04/20 02:36:01;;;;;;;;;;;;;;;;;;1042672;28;2568;-45
2022/04/20 02:36:32;;;;;;;;;;;;;;;;;;1042796;28;3295;-42
2022/04/20 02:37:02;;;;;;;;;;;;;;;;;;1042255;28;3521;-47
2022/04/20 02:37:32;;;;;;;;;;;;;;;;;;1037879;28;3698;-45
2022/04/20 02:38:17;;;;;;;;;;;;;;;;;;1038652;28;3363;-45
2022/04/20 02:38:54;;;;;;;;;;;;;;;;;;1038123;28;3565;-51
2022/04/20 02:39:25;;;;;;;;;;;;;;;;;;1038641;28;3854;-43
2022/04/20 02:39:55;;;;;;;;;;;;;;;;;;1038528;28;3183;-41
2022/04/20 02:40:25;;;;;;;;;;;;;;;;;;1039126;28;3484;-45
2022/04/20 02:40:56;;;;;;;;;;;;;;;;;;1042549;28;2221;-44
2022/04/20 02:41:26;;;;;;;;;;;;;;;;;;1041914;28;3514;-45
2022/04/20 02:41:56;;;;;;;;;;;;;;;;;;1040240;28;3442;-43
2022/04/20 02:42:27;;;;;;;;;;;;;;;;;;1041729;28;3501;-48
2022/04/20 02:42:57;;;;;;;;;;;;;;;;;;1038690;28;3517;-49
2022/04/20 02:43:27;;;;;;;;;;;;;;;;;;1038330;28;3539;-47
2022/04/20 02:43:57;;;;;;;;;;;;;;;;;;1038678;28;3494;-43
2022/04/20 02:44:28;;;;;;;;;;;;;;;;;;1037983;28;3476;-43
2022/04/20 02:44:58;;;;;;;;;;;;;;;;;;1037432;28;3943;-42
2022/04/20 02:45:28;;;;;;;;;;;;;;;;;;1038932;28;3279;-48
2022/04/20 02:45:58;;;;;;;;;;;;;;;;;;1038680;28;2155;-47
2022/04/20 02:46:29;;;;;;;;;;;;;;;;;;1037892;28;3035;-48
2022/04/20 02:46:59;;;;;;;;;;;;;;;;;;1038986;28;3206;-44
2022/04/20 02:47:29;;;;;;;;;;;;;;;;;;1042296;28;2881;-46
2022/04/20 02:48:00;;;;;;;;;;;;;;;;;;1043216;28;3467;-41
2022/04/20 02:48:30;;;;;;;;;;;;;;;;;;1037689;28;3530;-43
2022/04/20 02:49:01;;;;;;;;;;;;;;;;;;1038316;28;3289;-44
2022/04/20 02:49:31;;;;;;;;;;;;;;;;;;1037792;28;3338;-47
2022/04/20 02:50:02;;;;;;;;;;;;;;;;;;1037867;28;3489;-45
2022/04/20 02:50:39;;;;;;;;;;;;;;;;;;1038431;28;3299;-44
2022/04/20 02:51:09;;;;;;;;;;;;;;;;;;1039981;28;3406;-45
2022/04/20 02:51:40;;;;;;;;;;;;;;;;;;1038711;28;2117;-47
2022/04/20 02:52:10;;;;;;;;;;;;;;;;;;1038733;28;3566;-45
2022/04/20 02:52:40;;;;;;;;;;;;;;;;;;1042118;28;3416;-43
2022/04/20 02:53:12;;;;;;;;;;;;;;;;;;1043770;28;3569;-47
2022/04/20 02:53:42;;;;;;;;;;;;;;;;;;1042358;28;4718;-44
2022/04/20 02:54:12;;;;;;;;;;;;;;;;;;1042309;28;2811;-44
2022/04/20 02:54:43;;;;;;;;;;;;;;;;;;1039041;28;4482;-42
2022/04/20 02:55:13;;;;;;;;;;;;;;;;;;1043928;28;1765;-47
2022/04/20 02:55:43;;;;;;;;;;;;;;;;;;1042529;28;3056;-45
2022/04/20 02:56:14;;;;;;;;;;;;;;;;;;1043360;28;2012;-44
2022/04/20 02:56:44;;;;;;;;;;;;;;;;;;1041930;28;3472;-46
2022/04/20 02:57:14;;;;;;;;;;;;;;;;;;1040029;28;1829;-48
2022/04/20 02:57:45;;;;;;;;;;;;;;;;;;1038787;28;3798;-45
2022/04/20 02:58:15;;;;;;;;;;;;;;;;;;1039428;28;3560;-46
2022/04/20 02:58:45;;;;;;;;;;;;;;;;;;1038136;28;3253;-45
2022/04/20 02:59:15;;;;;;;;;;;;;;;;;;1039271;28;3591;-41
2022/04/20 02:59:46;;;;;;;;;;;;;;;;;;1039485;28;2180;-46
2022/04/20 03:00:16;;;;;;;;;;;;;;;;;;1036963;28;3565;-43
2022/04/20 03:00:46;;;;;;;;;;;;;;;;;;1039152;28;3403;-45
2022/04/20 03:01:17;;;;;;;;;;;;;;;;;;1040195;28;2007;-44
2022/04/20 03:01:47;;;;;;;;;;;;;;;;;;1040002;28;2056;-43
2022/04/20 03:02:17;;;;;;;;;;;;;;;;;;1040803;28;3306;-46
2022/04/20 03:02:48;;;;;;;;;;;;;;;;;;1040670;28;3714;-44
2022/04/20 03:03:18;;;;;;;;;;;;;;;;;;1041226;28;3738;-44
2022/04/20 03:03:48;;;;;;;;;;;;;;;;;;1041921;28;2953;-45
2022/04/20 03:04:18;;;;;;;;;;;;;;;;;;1039355;28;3608;-46
2022/04/20 03:04:49;;;;;;;;;;;;;;;;;;1038579;28;3738;-46
2022/04/20 03:05:19;;;;;;;;;;;;;;;;;;1038207;28;3410;-47
2022/04/20 03:05:50;;;;;;;;;;;;;;;;;;1037258;28;3159;-44
2022/04/20 03:06:20;;;;;;;;;;;;;;;;;;1037993;28;4091;-41
2022/04/20 03:06:50;;;;;;;;;;;;;;;;;;1037617;28;2901;-42
2022/04/20 03:07:22;;;;;;;;;;;;;;;;;;1037696;28;3661;-47
2022/04/20 03:07:53;;;;;;;;;;;;;;;;;;1045797;28;3399;-43
2022/04/20 03:08:24;;;;;;;;;;;;;;;;;;1046849;28;3315;-43
2022/04/20 03:08:55;;;;;;;;;;;;;;;;;;1041538;28;3470;-43
2022/04/20 03:09:25;;;;;;;;;;;;;;;;;;1040700;28;3451;-49
2022/04/20 03:09:55;;;;;;;;;;;;;;;;;;1036529;28;3611;-46
2022/04/20 03:10:26;;;;;;;;;;;;;;;;;;1039047;28;3368;-46
2022/04/20 03:10:56;;;;;;;;;;;;;;;;;;1039067;28;3296;-45
2022/04/20 03:11:27;;;;;;;;;;;;;;;;;;1039553;28;3328;-45
2022/04/20 03:11:57;;;;;;;;;;;;;;;;;;1041220;28;3395;-46
2022/04/20 03:12:27;;;;;;;;;;;;;;;;;;1041629;28;1932;-45
2022/04/20 03:12:58;;;;;;;;;;;;;;;;;;1041773;28;3291;-47
2022/04/20 03:13:28;;;;;;;;;;;;;;;;;;1039973;28;3269;-50
2022/04/20 03:13:58;;;;;;;;;;;;;;;;;;1037286;28;3347;-43
2022/04/20 03:14:28;;;;;;;;;;;;;;;;;;1038134;28;3504;-46
2022/04/20 03:14:59;;;;;;;;;;;;;;;;;;1039148;28;3454;-47
2022/04/20 03:15:29;;;;;;;;;;;;;;;;;;1037938;28;3598;-44
2022/04/20 03:15:59;;;;;;;;;;;;;;;;;;1036707;28;3466;-43
2022/04/20 03:16:29;;;;;;;;;;;;;;;;;;1039350;28;3152;-45
2022/04/20 03:17:00;;;;;;;;;;;;;;;;;;1039494;28;3893;-44
2022/04/20 03:17:30;;;;;;;;;;;;;;;;;;1037176;28;3567;-43
2022/04/20 03:18:01;;;;;;;;;;;;;;;;;;1040390;28;3717;-42
2022/04/20 03:18:32;;;;;;;;;;;;;;;;;;1039045;28;3724;-42
2022/04/20 03:19:03;;;;;;;;;;;;;;;;;;1040858;28;3613;-42
2022/04/20 03:19:33;;;;;;;;;;;;;;;;;;1040351;28;3743;-45
2022/04/20 03:20:04;;;;;;;;;;;;;;;;;;1038259;28;3616;-43
2022/04/20 03:20:41;;;;;;;;;;;;;;;;;;1039524;28;3531;-45
2022/04/20 03:21:11;;;;;;;;;;;;;;;;;;1042588;28;3257;-42
2022/04/20 03:21:41;;;;;;;;;;;;;;;;;;1041168;28;3426;-44
2022/04/20 03:22:12;;;;;;;;;;;;;;;;;;1042541;28;3493;-46
2022/04/20 03:22:42;;;;;;;;;;;;;;;;;;1037490;28;3401;-45
2022/04/20 03:23:14;;;;;;;;;;;;;;;;;;1038870;28;3849;-48
2022/04/20 03:23:44;;;;;;;;;;;;;;;;;;1039361;28;3443;-43
2022/04/20 03:24:14;;;;;;;;;;;;;;;;;;1037998;28;3509;-45
2022/04/20 03:24:44;;;;;;;;;;;;;;;;;;1039379;28;3503;-45
2022/04/20 03:25:15;;;;;;;;;;;;;;;;;;1042526;28;3238;-45
2022/04/20 03:25:45;;;;;;;;;;;;;;;;;;1038966;28;3344;-42
2022/04/20 03:26:15;;;;;;;;;;;;;;;;;;1041659;28;3292;-44
2022/04/20 03:26:46;;;;;;;;;;;;;;;;;;1038451;28;2975;-41
2022/04/20 03:27:16;;;;;;;;;;;;;;;;;;1039969;28;3621;-45
2022/04/20 03:27:46;;;;;;;;;;;;;;;;;;1039970;28;2817;-42
2022/04/20 03:28:16;;;;;;;;;;;;;;;;;;1037727;28;3230;-46
2022/04/20 03:28:47;;;;;;;;;;;;;;;;;;1039981;28;3847;-44
2022/04/20 03:29:17;;;;;;;;;;;;;;;;;;1039605;28;2208;-45
2022/04/20 03:29:47;;;;;;;;;;;;;;;;;;1038369;28;3467;-42
2022/04/20 03:30:17;;;;;;;;;;;;;;;;;;1039365;28;3346;-45
2022/04/20 03:30:48;;;;;;;;;;;;;;;;;;1038101;28;3506;-40
2022/04/20 03:31:18;;;;;;;;;;;;;;;;;;1039962;28;3612;-49
2022/04/20 03:31:48;;;;;;;;;;;;;;;;;;1038734;28;3334;-46
2022/04/20 03:32:19;;;;;;;;;;;;;;;;;;1039394;28;3491;-45
2022/04/20 03:32:49;;;;;;;;;;;;;;;;;;1039461;28;2977;-44
2022/04/20 03:33:19;;;;;;;;;;;;;;;;;;1039227;28;3497;-42
2022/04/20 03:33:50;;;;;;;;;;;;;;;;;;1039230;28;2019;-41
2022/04/20 03:34:20;;;;;;;;;;;;;;;;;;1039307;28;3104;-42
2022/04/20 03:34:50;;;;;;;;;;;;;;;;;;1038366;28;3838;-46
2022/04/20 03:35:21;;;;;;;;;;;;;;;;;;1038372;28;3443;-45
2022/04/20 03:35:51;;;;;;;;;;;;;;;;;;1039622;28;3468;-46
2022/04/20 03:36:21;;;;;;;;;;;;;;;;;;1040325;28;3870;-45